Wetterdaten: Woche 15.08.16 - 21.08.16 (KW33)
Datum Zeit Temp. A. Temp. A. max Feuchte A. Luftdruck Regen Wind Richtung Sonnenschein ET UV Solar Taupunkt Windben
15.08.2016 00:00 15,5 C 15,5 C 92 % 1020,3 hPa 0,0 mm 0,0 km/h (0 Bft) N 0,00 h 0,000 mm 0,0 UV-I 0 W/m 14,1 C 0,0 km/h (0 Bft)
15.08.2016 01:00 15,3 C 15,3 C 91 % 1019,8 hPa 0,0 mm 1,6 km/h (1 Bft) S-SO 0,00 h 0,000 mm 0,0 UV-I 0 W/m 13,8 C 2,8 km/h (1 Bft)
15.08.2016 02:00 14,8 C 14,8 C 92 % 1019,5 hPa 0,0 mm 0,5 km/h (0 Bft) S-SO 0,00 h 0,000 mm 0,0 UV-I 0 W/m 13,5 C 1,2 km/h (1 Bft)
15.08.2016 03:00 13,5 C 13,5 C 94 % 1019,4 hPa 0,0 mm 0,4 km/h (0 Bft) S-SO 0,00 h 0,000 mm 0,0 UV-I 0 W/m 12,6 C 1,0 km/h (0 Bft)
15.08.2016 04:00 13,2 C 13,3 C 94 % 1019,3 hPa 0,0 mm 0,5 km/h (0 Bft) S-SO 0,00 h 0,000 mm 0,0 UV-I 0 W/m 12,3 C 1,2 km/h (1 Bft)
15.08.2016 05:00 12,9 C 12,9 C 94 % 1019,2 hPa 0,0 mm 0,1 km/h (0 Bft) S-SO 0,00 h 0,000 mm 0,0 UV-I 0 W/m 12,0 C 0,4 km/h (0 Bft)
15.08.2016 06:00 12,4 C 12,4 C 96 % 1019,2 hPa 0,0 mm 0,0 km/h (0 Bft) N 0,00 h 0,000 mm 0,0 UV-I 10 W/m 11,8 C 0,2 km/h (0 Bft)
15.08.2016 07:00 13,2 C 13,3 C 95 % 1019,1 hPa 0,0 mm 0,5 km/h (0 Bft) S-SO 0,35 h 0,000 mm 0,7 UV-I 113 W/m 12,5 C 1,2 km/h (1 Bft)
15.08.2016 08:00 16,1 C 16,1 C 91 % 1019,1 hPa 0,0 mm 0,6 km/h (0 Bft) W-NW 0,02 h 0,051 mm 0,9 UV-I 149 W/m 14,5 C 1,2 km/h (1 Bft)
15.08.2016 09:00 17,0 C 17,1 C 89 % 1019,2 hPa 0,0 mm 0,8 km/h (0 Bft) W 0,00 h 0,076 mm 1,0 UV-I 119 W/m 15,3 C 1,6 km/h (1 Bft)
15.08.2016 10:00 17,5 C 17,5 C 88 % 1019,4 hPa 0,0 mm 1,5 km/h (1 Bft) W-SW 0,00 h 0,076 mm 1,5 UV-I 163 W/m 15,5 C 2,6 km/h (1 Bft)
15.08.2016 11:00 19,0 C 19,0 C 83 % 1019,4 hPa 0,0 mm 2,5 km/h (1 Bft) W-SW 0,67 h 0,102 mm 4,4 UV-I 548 W/m 16,0 C 4,0 km/h (1 Bft)
15.08.2016 12:00 21,2 C 21,3 C 76 % 1018,9 hPa 0,0 mm 3,5 km/h (1 Bft) O-NO 1,00 h 0,305 mm 6,1 UV-I 780 W/m 16,7 C 5,6 km/h (1 Bft)
15.08.2016 13:00 22,6 C 22,6 C 71 % 1018,4 hPa 0,0 mm 4,3 km/h (1 Bft) NO 0,97 h 0,457 mm 6,1 UV-I 826 W/m 17,1 C 6,5 km/h (2 Bft)
15.08.2016 14:00 23,2 C 23,3 C 69 % 1018,0 hPa 0,0 mm 4,9 km/h (1 Bft) NO 0,97 h 0,482 mm 5,6 UV-I 746 W/m 17,1 C 8,3 km/h (2 Bft)
15.08.2016 15:00 23,3 C 23,3 C 68 % 1017,7 hPa 0,0 mm 6,2 km/h (2 Bft) NO 1,00 h 2,464 mm 4,6 UV-I 716 W/m 17,0 C 9,6 km/h (2 Bft)
15.08.2016 16:00 23,2 C 23,2 C 66 % 1017,4 hPa 0,0 mm 5,8 km/h (2 Bft) O-NO 0,32 h 0,000 mm 2,6 UV-I 258 W/m 16,5 C 8,5 km/h (2 Bft)
15.08.2016 17:00 22,6 C 22,6 C 67 % 1017,3 hPa 0,0 mm 5,1 km/h (1 Bft) NO 0,00 h 0,000 mm 1,5 UV-I 123 W/m 16,1 C 7,7 km/h (2 Bft)
15.08.2016 18:00 22,1 C 22,1 C 71 % 1017,2 hPa 0,0 mm 3,2 km/h (1 Bft) NO 0,00 h 0,000 mm 1,0 UV-I 64 W/m 16,5 C 5,1 km/h (1 Bft)
15.08.2016 19:00 21,1 C 21,1 C 74 % 1017,0 hPa 0,0 mm 2,0 km/h (1 Bft) NO 0,00 h 0,000 mm 0,5 UV-I 49 W/m 16,2 C 3,7 km/h (1 Bft)
15.08.2016 20:00 19,4 C 19,5 C 78 % 1017,4 hPa 0,0 mm 0,9 km/h (0 Bft) O-NO 0,03 h 0,000 mm 0,0 UV-I 12 W/m 15,6 C 1,9 km/h (1 Bft)
15.08.2016 21:00 16,8 C 16,9 C 87 % 1017,7 hPa 0,0 mm 0,0 km/h (0 Bft) N 0,00 h 0,000 mm 0,0 UV-I 0 W/m 14,7 C 0,1 km/h (0 Bft)
15.08.2016 22:00 15,5 C 15,6 C 91 % 1017,7 hPa 0,0 mm 0,4 km/h (0 Bft) S-SO 0,00 h 0,000 mm 0,0 UV-I 0 W/m 14,0 C 0,8 km/h (0 Bft)
15.08.2016 23:00 14,8 C 14,8 C 92 % 1017,6 hPa 0,0 mm 0,0 km/h (0 Bft) S-SO 0,00 h 0,000 mm 0,0 UV-I 0 W/m 13,5 C 0,1 km/h (0 Bft)
16.08.2016 00:00 14,2 C 14,2 C 94 % 1017,5 hPa 0,0 mm 0,0 km/h (0 Bft) N 0,00 h 0,000 mm 0,0 UV-I 0 W/m 13,3 C 0,0 km/h (0 Bft)
16.08.2016 01:00 13,8 C 13,8 C 95 % 1017,3 hPa 0,0 mm 0,0 km/h (0 Bft) N 0,00 h 0,000 mm 0,0 UV-I 0 W/m 13,0 C 0,0 km/h (0 Bft)
16.08.2016 02:00 13,5 C 13,6 C 95 % 1016,9 hPa 0,0 mm 0,0 km/h (0 Bft) N 0,00 h 0,000 mm 0,0 UV-I 0 W/m 12,7 C 0,0 km/h (0 Bft)
16.08.2016 03:00 13,1 C 13,2 C 96 % 1016,5 hPa 0,0 mm 0,0 km/h (0 Bft) N 0,00 h 0,000 mm 0,0 UV-I 0 W/m 12,5 C 0,0 km/h (0 Bft)
16.08.2016 04:00 13,0 C 13,1 C 96 % 1016,2 hPa 0,0 mm 0,0 km/h (0 Bft) N 0,00 h 0,000 mm 0,0 UV-I 0 W/m 12,3 C 0,0 km/h (0 Bft)
16.08.2016 05:00 13,0 C 13,0 C 96 % 1015,9 hPa 0,0 mm 0,0 km/h (0 Bft) N 0,00 h 0,000 mm 0,0 UV-I 0 W/m 12,3 C 0,0 km/h (0 Bft)
16.08.2016 06:00 13,0 C 13,0 C 96 % 1016,0 hPa 0,0 mm 0,1 km/h (0 Bft) O 0,00 h 0,000 mm 0,0 UV-I 15 W/m 12,3 C 0,3 km/h (0 Bft)
16.08.2016 07:00 13,6 C 13,6 C 95 % 1016,0 hPa 0,0 mm 0,0 km/h (0 Bft) N 0,32 h 0,000 mm 0,6 UV-I 88 W/m 12,8 C 0,0 km/h (0 Bft)
16.08.2016 08:00 16,7 C 16,7 C 90 % 1015,7 hPa 0,0 mm 0,0 km/h (0 Bft) N 1,00 h 0,051 mm 1,4 UV-I 290 W/m 15,1 C 0,0 km/h (0 Bft)
16.08.2016 09:00 19,6 C 19,6 C 83 % 1015,3 hPa 0,0 mm 0,7 km/h (0 Bft) NW 1,00 h 0,152 mm 2,7 UV-I 461 W/m 16,6 C 1,7 km/h (1 Bft)
16.08.2016 10:00 21,7 C 21,8 C 74 % 1015,2 hPa 0,0 mm 3,5 km/h (1 Bft) N 1,00 h 0,280 mm 4,0 UV-I 613 W/m 16,8 C 5,6 km/h (1 Bft)
16.08.2016 11:00 22,5 C 22,6 C 72 % 1014,8 hPa 0,0 mm 3,3 km/h (1 Bft) O-NO 0,83 h 0,381 mm 4,7 UV-I 680 W/m 17,3 C 5,2 km/h (1 Bft)
16.08.2016 12:00 23,3 C 23,4 C 66 % 1014,3 hPa 0,0 mm 4,0 km/h (1 Bft) NW 0,90 h 0,406 mm 6,0 UV-I 810 W/m 16,5 C 6,5 km/h (2 Bft)
16.08.2016 13:00 24,1 C 24,1 C 60 % 1013,9 hPa 0,0 mm 5,3 km/h (1 Bft) W 0,73 h 0,508 mm 5,5 UV-I 726 W/m 15,8 C 8,7 km/h (2 Bft)
16.08.2016 14:00 24,2 C 24,2 C 60 % 1013,5 hPa 0,0 mm 5,4 km/h (1 Bft) W-NW 0,55 h 0,457 mm 4,6 UV-I 552 W/m 15,8 C 8,8 km/h (2 Bft)
16.08.2016 15:00 24,7 C 24,7 C 57 % 1013,1 hPa 0,0 mm 6,4 km/h (2 Bft) W-NW 0,85 h 0,381 mm 4,4 UV-I 636 W/m 15,6 C 9,7 km/h (2 Bft)
16.08.2016 16:00 24,3 C 24,3 C 57 % 1012,6 hPa 0,0 mm 5,1 km/h (1 Bft) W-NW 0,25 h 0,432 mm 2,3 UV-I 250 W/m 15,2 C 8,5 km/h (2 Bft)
16.08.2016 17:00 24,0 C 24,1 C 57 % 1012,1 hPa 0,0 mm 3,2 km/h (1 Bft) W-NW 0,00 h 0,178 mm 1,4 UV-I 79 W/m 15,0 C 5,5 km/h (1 Bft)
16.08.2016 18:00 23,6 C 23,6 C 61 % 1011,4 hPa 0,0 mm 3,0 km/h (1 Bft) O-NO 0,00 h 0,076 mm 1,0 UV-I 59 W/m 15,7 C 4,6 km/h (1 Bft)
16.08.2016 19:00 22,2 C 22,2 C 69 % 1011,1 hPa 0,0 mm 1,3 km/h (1 Bft) O-NO 0,13 h 0,051 mm 0,5 UV-I 56 W/m 16,2 C 2,6 km/h (1 Bft)
16.08.2016 20:00 20,2 C 20,2 C 76 % 1011,3 hPa 0,0 mm 1,0 km/h (0 Bft) O 0,08 h 0,051 mm 0,0 UV-I 17 W/m 15,7 C 1,8 km/h (1 Bft)
16.08.2016 21:00 18,5 C 18,5 C 81 % 1011,4 hPa 0,0 mm 1,0 km/h (0 Bft) O 0,00 h 0,000 mm 0,0 UV-I 0 W/m 15,3 C 2,0 km/h (1 Bft)
16.08.2016 22:00 18,2 C 18,2 C 83 % 1011,3 hPa 0,0 mm 0,9 km/h (0 Bft) O-NO 0,00 h 0,025 mm 0,0 UV-I 0 W/m 15,2 C 1,4 km/h (1 Bft)
16.08.2016 23:00 15,0 C 15,1 C 89 % 1012,1 hPa 7,4 mm 6,8 km/h (2 Bft) S 0,00 h 0,025 mm 0,0 UV-I 0 W/m 13,1 C 11,1 km/h (2 Bft)
17.08.2016 00:00 14,2 C 14,3 C 94 % 1011,8 hPa 0,0 mm 0,6 km/h (0 Bft) O-SO 0,00 h 0,000 mm 0,0 UV-I 0 W/m 13,3 C 1,5 km/h (1 Bft)
17.08.2016 01:00 14,1 C 14,1 C 95 % 1011,7 hPa 0,2 mm 0,3 km/h (0 Bft) O-SO 0,00 h 0,000 mm 0,0 UV-I 0 W/m 13,3 C 0,9 km/h (0 Bft)
17.08.2016 02:00 14,0 C 14,1 C 95 % 1011,3 hPa 0,0 mm 0,5 km/h (0 Bft) W-SW 0,00 h 0,000 mm 0,0 UV-I 0 W/m 13,3 C 1,5 km/h (1 Bft)
17.08.2016 03:00 14,0 C 14,0 C 95 % 1011,1 hPa 0,0 mm 0,8 km/h (0 Bft) S 0,00 h 0,000 mm 0,0 UV-I 0 W/m 13,3 C 1,6 km/h (1 Bft)
17.08.2016 04:00 13,5 C 13,5 C 96 % 1011,0 hPa 0,0 mm 1,6 km/h (1 Bft) S 0,00 h 0,000 mm 0,0 UV-I 0 W/m 12,8 C 2,9 km/h (1 Bft)
17.08.2016 05:00 13,7 C 13,7 C 95 % 1011,0 hPa 0,0 mm 1,3 km/h (1 Bft) S 0,00 h 0,000 mm 0,0 UV-I 0 W/m 12,9 C 2,3 km/h (1 Bft)
17.08.2016 06:00 14,1 C 14,1 C 96 % 1011,0 hPa 0,0 mm 0,6 km/h (0 Bft) S-SO 0,00 h 0,000 mm 0,0 UV-I 12 W/m 13,4 C 1,3 km/h (1 Bft)
17.08.2016 07:00 14,4 C 14,4 C 95 % 1010,7 hPa 0,0 mm 0,5 km/h (0 Bft) S-SW 0,00 h 0,000 mm 0,5 UV-I 47 W/m 13,6 C 1,0 km/h (0 Bft)
17.08.2016 08:00 15,9 C 15,9 C 92 % 1010,5 hPa 0,0 mm 0,7 km/h (0 Bft) W-SW 0,18 h 0,025 mm 0,9 UV-I 157 W/m 14,6 C 1,5 km/h (1 Bft)
17.08.2016 09:00 16,4 C 16,5 C 91 % 1010,6 hPa 0,0 mm 2,4 km/h (1 Bft) NO 0,15 h 0,077 mm 1,3 UV-I 196 W/m 15,0 C 3,9 km/h (1 Bft)
17.08.2016 10:00 16,9 C 17,0 C 90 % 1011,0 hPa 0,0 mm 2,9 km/h (1 Bft) NO 0,20 h 0,101 mm 1,9 UV-I 274 W/m 15,3 C 4,7 km/h (1 Bft)
17.08.2016 11:00 16,8 C 16,8 C 90 % 1011,2 hPa 0,0 mm 4,5 km/h (1 Bft) O-NO 0,00 h 0,154 mm 2,2 UV-I 263 W/m 15,0 C 6,7 km/h (2 Bft)
17.08.2016 12:00 18,1 C 18,1 C 85 % 1011,1 hPa 0,0 mm 3,2 km/h (1 Bft) N 0,23 h 0,151 mm 3,2 UV-I 394 W/m 15,6 C 5,2 km/h (1 Bft)
17.08.2016 13:00 18,3 C 18,3 C 83 % 1011,1 hPa 0,0 mm 3,8 km/h (1 Bft) O-NO 0,00 h 0,229 mm 2,7 UV-I 294 W/m 15,4 C 6,1 km/h (2 Bft)
17.08.2016 14:00 18,7 C 18,8 C 79 % 1011,0 hPa 0,0 mm 3,5 km/h (1 Bft) O-NO 0,18 h 0,177 mm 2,9 UV-I 322 W/m 15,0 C 5,6 km/h (1 Bft)
17.08.2016 15:00 19,1 C 19,1 C 77 % 1010,8 hPa 0,0 mm 2,3 km/h (1 Bft) O-SO 0,15 h 0,204 mm 2,8 UV-I 314 W/m 14,9 C 3,7 km/h (1 Bft)
17.08.2016 16:00 19,7 C 19,7 C 75 % 1010,4 hPa 0,0 mm 1,9 km/h (1 Bft) W 0,02 h 0,177 mm 2,5 UV-I 241 W/m 15,2 C 3,3 km/h (1 Bft)
17.08.2016 17:00 19,9 C 19,9 C 75 % 1010,1 hPa 0,0 mm 2,9 km/h (1 Bft) W-SW 0,00 h 0,153 mm 1,5 UV-I 109 W/m 15,3 C 5,1 km/h (1 Bft)
17.08.2016 18:00 19,7 C 19,8 C 75 % 1009,8 hPa 0,0 mm 1,1 km/h (1 Bft) W 0,00 h 0,076 mm 1,0 UV-I 62 W/m 15,1 C 2,3 km/h (1 Bft)
17.08.2016 19:00 18,1 C 18,1 C 84 % 1009,8 hPa 0,0 mm 1,4 km/h (1 Bft) S 0,00 h 0,051 mm 0,5 UV-I 31 W/m 15,3 C 2,5 km/h (1 Bft)
17.08.2016 20:00 16,7 C 16,7 C 88 % 1010,0 hPa 0,0 mm 0,4 km/h (0 Bft) S 0,00 h 0,025 mm 0,0 UV-I 11 W/m 14,7 C 0,9 km/h (0 Bft)
17.08.2016 21:00 16,3 C 16,3 C 90 % 1010,3 hPa 0,0 mm 0,4 km/h (0 Bft) S 0,00 h 0,000 mm 0,0 UV-I 0 W/m 14,7 C 1,0 km/h (0 Bft)
17.08.2016 22:00 15,9 C 15,9 C 91 % 1010,2 hPa 0,0 mm 0,0 km/h (0 Bft) N 0,00 h 0,000 mm 0,0 UV-I 0 W/m 14,4 C 0,1 km/h (0 Bft)
17.08.2016 23:00 15,6 C 15,6 C 92 % 1010,2 hPa 0,0 mm 0,3 km/h (0 Bft) S 0,00 h 0,000 mm 0,0 UV-I 0 W/m 14,3 C 0,8 km/h (0 Bft)
18.08.2016 00:00 14,7 C 14,7 C 94 % 1009,9 hPa 0,0 mm 0,6 km/h (0 Bft) S-SW 0,00 h 0,000 mm 0,0 UV-I 0 W/m 13,6 C 1,3 km/h (1 Bft)
18.08.2016 01:00 14,0 C 14,0 C 94 % 1010,2 hPa 7,6 mm 4,0 km/h (1 Bft) SW 0,00 h 0,000 mm 0,0 UV-I 0 W/m 13,0 C 6,7 km/h (2 Bft)
18.08.2016 02:00 13,5 C 13,5 C 95 % 1010,2 hPa 2,0 mm 2,6 km/h (1 Bft) S 0,00 h 0,000 mm 0,0 UV-I 0 W/m 12,6 C 4,1 km/h (1 Bft)
18.08.2016 03:00 13,6 C 13,6 C 96 % 1010,0 hPa 0,2 mm 1,3 km/h (1 Bft) S-SO 0,00 h 0,000 mm 0,0 UV-I 0 W/m 12,9 C 2,4 km/h (1 Bft)
18.08.2016 04:00 13,3 C 13,4 C 96 % 1009,4 hPa 0,0 mm 0,5 km/h (0 Bft) N-NO 0,00 h 0,000 mm 0,0 UV-I 0 W/m 12,7 C 1,4 km/h (1 Bft)
18.08.2016 05:00 13,7 C 13,7 C 96 % 1008,9 hPa 0,0 mm 0,5 km/h (0 Bft) NW 0,00 h 0,000 mm 0,0 UV-I 0 W/m 13,1 C 1,1 km/h (0 Bft)
18.08.2016 06:00 14,1 C 14,1 C 93 % 1009,1 hPa 1,2 mm 3,9 km/h (1 Bft) S 0,15 h 0,000 mm 0,0 UV-I 12 W/m 13,0 C 6,4 km/h (2 Bft)
18.08.2016 07:00 13,9 C 13,9 C 94 % 1009,1 hPa 0,2 mm 1,8 km/h (1 Bft) S-SO 0,00 h 0,000 mm 0,5 UV-I 36 W/m 13,0 C 3,4 km/h (1 Bft)
18.08.2016 08:00 14,3 C 14,3 C 95 % 1009,0 hPa 0,0 mm 1,3 km/h (1 Bft) N-NO 0,02 h 0,025 mm 0,9 UV-I 111 W/m 13,5 C 2,7 km/h (1 Bft)
18.08.2016 09:00 16,0 C 16,0 C 93 % 1009,1 hPa 0,0 mm 1,3 km/h (1 Bft) O-SO 0,50 h 0,051 mm 1,9 UV-I 333 W/m 14,8 C 2,8 km/h (1 Bft)
18.08.2016 10:00 18,4 C 18,5 C 86 % 1009,1 hPa 0,0 mm 2,4 km/h (1 Bft) O-SO 1,00 h 0,178 mm 3,7 UV-I 609 W/m 15,9 C 4,6 km/h (1 Bft)
18.08.2016 11:00 20,7 C 20,7 C 77 % 1009,0 hPa 0,0 mm 7,6 km/h (2 Bft) W 0,73 h 0,330 mm 4,4 UV-I 565 W/m 16,6 C 12,5 km/h (3 Bft)
18.08.2016 12:00 21,6 C 21,6 C 67 % 1009,0 hPa 0,0 mm 12,1 km/h (2 Bft) W 0,95 h 0,381 mm 5,4 UV-I 692 W/m 15,3 C 19,0 km/h (3 Bft)
18.08.2016 13:00 21,8 C 21,9 C 62 % 1009,0 hPa 0,0 mm 12,5 km/h (3 Bft) W-SW 0,63 h 0,457 mm 4,9 UV-I 567 W/m 14,1 C 19,8 km/h (4 Bft)
18.08.2016 14:00 20,7 C 20,7 C 67 % 1008,6 hPa 0,0 mm 7,1 km/h (2 Bft) W-NW 0,00 h 0,407 mm 2,3 UV-I 247 W/m 14,2 C 11,5 km/h (2 Bft)
18.08.2016 15:00 21,5 C 21,5 C 68 % 1008,2 hPa 0,0 mm 6,0 km/h (2 Bft) W 0,75 h 0,178 mm 3,6 UV-I 496 W/m 15,2 C 9,5 km/h (2 Bft)
18.08.2016 16:00 20,8 C 20,9 C 68 % 1008,2 hPa 0,0 mm 7,1 km/h (2 Bft) W-NW 0,03 h 0,330 mm 1,7 UV-I 211 W/m 14,6 C 11,4 km/h (2 Bft)
18.08.2016 17:00 18,6 C 18,6 C 70 % 1009,0 hPa 0,0 mm 7,2 km/h (2 Bft) W 0,00 h 0,152 mm 1,4 UV-I 87 W/m 13,0 C 11,7 km/h (2 Bft)
18.08.2016 18:00 14,6 C 14,7 C 87 % 1010,2 hPa 1,8 mm 9,1 km/h (2 Bft) W-SW 0,00 h 0,076 mm 0,0 UV-I 24 W/m 12,5 C 14,6 km/h (3 Bft)
18.08.2016 19:00 13,5 C 13,6 C 93 % 1010,0 hPa 0,2 mm 0,9 km/h (0 Bft) S-SO 0,00 h 0,026 mm 0,0 UV-I 17 W/m 12,4 C 1,9 km/h (1 Bft)
18.08.2016 20:00 13,6 C 13,6 C 92 % 1010,7 hPa 0,0 mm 2,6 km/h (1 Bft) S-SW 0,00 h 0,000 mm 0,0 UV-I 0 W/m 12,2 C 4,8 km/h (1 Bft)
18.08.2016 21:00 13,2 C 13,2 C 92 % 1010,8 hPa 1,2 mm 1,6 km/h (1 Bft) S-SO 0,00 h 0,000 mm 0,0 UV-I 0 W/m 11,9 C 3,4 km/h (1 Bft)
18.08.2016 22:00 12,6 C 12,6 C 94 % 1010,7 hPa 0,0 mm 0,0 km/h (0 Bft) N 0,00 h 0,000 mm 0,0 UV-I 0 W/m 11,7 C 0,1 km/h (0 Bft)
18.08.2016 23:00 12,7 C 12,7 C 95 % 1010,4 hPa 0,0 mm 0,0 km/h (0 Bft) N 0,00 h 0,000 mm 0,0 UV-I 0 W/m 11,9 C 0,0 km/h (0 Bft)
19.08.2016 00:00 12,4 C 12,4 C 95 % 1010,6 hPa 0,0 mm 0,3 km/h (0 Bft) O-NO 0,00 h 0,000 mm 0,0 UV-I 0 W/m 11,6 C 0,9 km/h (0 Bft)
19.08.2016 01:00 12,3 C 12,3 C 95 % 1010,7 hPa 0,0 mm 0,1 km/h (0 Bft) O-NO 0,00 h 0,000 mm 0,0 UV-I 0 W/m 11,5 C 0,6 km/h (0 Bft)
19.08.2016 02:00 12,5 C 12,5 C 95 % 1010,4 hPa 0,4 mm 0,1 km/h (0 Bft) O-NO 0,00 h 0,000 mm 0,0 UV-I 0 W/m 11,7 C 0,2 km/h (0 Bft)
19.08.2016 03:00 12,6 C 12,7 C 96 % 1010,4 hPa 0,0 mm 0,2 km/h (0 Bft) O-NO 0,00 h 0,000 mm 0,0 UV-I 0 W/m 11,9 C 0,7 km/h (0 Bft)
19.08.2016 04:00 12,6 C 12,6 C 96 % 1010,3 hPa 0,0 mm 0,3 km/h (0 Bft) O-NO 0,00 h 0,000 mm 0,0 UV-I 0 W/m 11,9 C 0,7 km/h (0 Bft)
19.08.2016 05:00 12,4 C 12,4 C 95 % 1010,4 hPa 0,0 mm 0,2 km/h (0 Bft) O-SO 0,00 h 0,000 mm 0,0 UV-I 0 W/m 11,7 C 0,6 km/h (0 Bft)
19.08.2016 06:00 12,7 C 12,7 C 96 % 1010,8 hPa 0,0 mm 0,0 km/h (0 Bft) N 0,00 h 0,000 mm 0,0 UV-I 12 W/m 12,0 C 0,0 km/h (0 Bft)
19.08.2016 07:00 13,2 C 13,2 C 95 % 1011,2 hPa 0,0 mm 0,1 km/h (0 Bft) O-SO 0,00 h 0,000 mm 0,5 UV-I 40 W/m 12,4 C 0,2 km/h (0 Bft)
19.08.2016 08:00 14,4 C 14,4 C 93 % 1011,5 hPa 0,0 mm 0,4 km/h (0 Bft) W 0,43 h 0,025 mm 1,1 UV-I 190 W/m 13,2 C 0,8 km/h (0 Bft)
19.08.2016 09:00 16,8 C 16,9 C 84 % 1011,5 hPa 0,0 mm 2,6 km/h (1 Bft) NW 0,80 h 0,102 mm 2,5 UV-I 399 W/m 14,2 C 4,1 km/h (1 Bft)
19.08.2016 10:00 18,1 C 18,2 C 80 % 1011,6 hPa 0,0 mm 4,5 km/h (1 Bft) W 0,48 h 0,229 mm 3,1 UV-I 415 W/m 14,5 C 7,1 km/h (2 Bft)
19.08.2016 11:00 18,6 C 18,7 C 79 % 1011,8 hPa 0,0 mm 3,5 km/h (1 Bft) NW 0,43 h 0,228 mm 4,0 UV-I 513 W/m 14,9 C 5,6 km/h (1 Bft)
19.08.2016 12:00 19,8 C 19,9 C 76 % 1011,5 hPa 0,0 mm 3,9 km/h (1 Bft) N 0,65 h 0,305 mm 5,6 UV-I 688 W/m 15,4 C 6,3 km/h (2 Bft)
19.08.2016 13:00 20,4 C 20,5 C 74 % 1011,2 hPa 0,0 mm 4,1 km/h (1 Bft) O-NO 0,67 h 0,406 mm 5,5 UV-I 661 W/m 15,6 C 6,7 km/h (2 Bft)
19.08.2016 14:00 21,3 C 21,3 C 69 % 1011,2 hPa 0,0 mm 3,7 km/h (1 Bft) N 0,52 h 0,407 mm 4,9 UV-I 575 W/m 15,4 C 5,7 km/h (1 Bft)
19.08.2016 15:00 21,0 C 21,0 C 71 % 1011,0 hPa 0,0 mm 2,9 km/h (1 Bft) O-NO 0,43 h 0,355 mm 3,1 UV-I 359 W/m 15,4 C 5,0 km/h (1 Bft)
19.08.2016 16:00 20,8 C 20,8 C 73 % 1011,0 hPa 0,0 mm 3,2 km/h (1 Bft) O-NO 0,00 h 0,229 mm 1,9 UV-I 177 W/m 15,8 C 5,1 km/h (1 Bft)
19.08.2016 17:00 20,7 C 20,8 C 74 % 1011,0 hPa 0,0 mm 2,0 km/h (1 Bft) O-NO 0,00 h 0,127 mm 1,5 UV-I 153 W/m 15,9 C 3,6 km/h (1 Bft)
19.08.2016 18:00 20,4 C 20,5 C 74 % 1011,0 hPa 0,0 mm 1,7 km/h (1 Bft) O 0,00 h 0,102 mm 0,9 UV-I 104 W/m 15,7 C 3,2 km/h (1 Bft)
19.08.2016 19:00 19,1 C 19,1 C 81 % 1011,2 hPa 0,0 mm 1,3 km/h (1 Bft) O 0,05 h 0,076 mm 0,5 UV-I 42 W/m 15,7 C 2,5 km/h (1 Bft)
19.08.2016 20:00 16,9 C 17,0 C 87 % 1011,6 hPa 0,0 mm 1,1 km/h (1 Bft) O-SO 0,17 h 0,025 mm 0,0 UV-I 14 W/m 14,7 C 2,1 km/h (1 Bft)
19.08.2016 21:00 15,4 C 15,4 C 91 % 1012,1 hPa 0,0 mm 0,5 km/h (0 Bft) O-SO 0,00 h 0,000 mm 0,0 UV-I 0 W/m 14,0 C 1,3 km/h (1 Bft)
19.08.2016 22:00 15,5 C 15,6 C 91 % 1012,6 hPa 0,0 mm 1,0 km/h (0 Bft) S 0,00 h 0,000 mm 0,0 UV-I 0 W/m 14,1 C 1,8 km/h (1 Bft)
19.08.2016 23:00 15,3 C 15,4 C 91 % 1013,0 hPa 0,0 mm 0,6 km/h (0 Bft) S 0,00 h 0,000 mm 0,0 UV-I 0 W/m 13,9 C 1,5 km/h (1 Bft)
20.08.2016 00:00 15,7 C 15,7 C 91 % 1012,8 hPa 0,0 mm 0,7 km/h (0 Bft) S 0,00 h 0,000 mm 0,0 UV-I 0 W/m 14,1 C 1,7 km/h (1 Bft)
20.08.2016 01:00 15,1 C 15,1 C 91 % 1012,6 hPa 0,0 mm 0,3 km/h (0 Bft) O-SO 0,00 h 0,000 mm 0,0 UV-I 0 W/m 13,7 C 0,9 km/h (0 Bft)
20.08.2016 02:00 14,3 C 14,3 C 93 % 1012,7 hPa 0,0 mm 0,1 km/h (0 Bft) NO 0,00 h 0,000 mm 0,0 UV-I 0 W/m 13,2 C 0,2 km/h (0 Bft)
20.08.2016 03:00 15,2 C 15,2 C 90 % 1013,0 hPa 0,0 mm 0,5 km/h (0 Bft) S-SO 0,00 h 0,000 mm 0,0 UV-I 0 W/m 13,5 C 1,4 km/h (1 Bft)
20.08.2016 04:00 14,7 C 14,7 C 90 % 1013,1 hPa 0,0 mm 0,3 km/h (0 Bft) NW 0,00 h 0,000 mm 0,0 UV-I 0 W/m 13,0 C 0,9 km/h (0 Bft)
20.08.2016 05:00 14,4 C 14,4 C 90 % 1013,2 hPa 0,0 mm 0,0 km/h (0 Bft) N 0,00 h 0,000 mm 0,0 UV-I 0 W/m 12,7 C 0,1 km/h (0 Bft)
20.08.2016 06:00 14,1 C 14,2 C 90 % 1013,2 hPa 0,0 mm 0,0 km/h (0 Bft) N 0,00 h 0,000 mm 0,0 UV-I 14 W/m 12,4 C 0,0 km/h (0 Bft)
20.08.2016 07:00 14,5 C 14,5 C 90 % 1013,3 hPa 0,0 mm 0,0 km/h (0 Bft) N 0,00 h 0,000 mm 0,0 UV-I 60 W/m 12,8 C 0,0 km/h (0 Bft)
20.08.2016 08:00 15,9 C 15,9 C 87 % 1013,2 hPa 0,0 mm 0,0 km/h (0 Bft) N 0,00 h 0,025 mm 0,7 UV-I 76 W/m 13,8 C 0,0 km/h (0 Bft)
20.08.2016 09:00 17,6 C 17,7 C 85 % 1012,9 hPa 0,0 mm 0,0 km/h (0 Bft) N 0,17 h 0,051 mm 1,8 UV-I 242 W/m 15,1 C 0,0 km/h (0 Bft)
20.08.2016 10:00 20,8 C 20,8 C 75 % 1012,7 hPa 0,0 mm 2,2 km/h (1 Bft) NO 1,00 h 0,127 mm 4,2 UV-I 623 W/m 16,1 C 3,8 km/h (1 Bft)
20.08.2016 11:00 22,9 C 22,9 C 61 % 1012,7 hPa 0,0 mm 3,2 km/h (1 Bft) NO 1,00 h 0,356 mm 5,5 UV-I 721 W/m 14,9 C 5,3 km/h (1 Bft)
20.08.2016 12:00 23,4 C 23,5 C 61 % 1012,5 hPa 0,0 mm 3,7 km/h (1 Bft) NO 0,93 h 0,457 mm 5,2 UV-I 613 W/m 15,5 C 5,9 km/h (2 Bft)
20.08.2016 13:00 23,8 C 23,9 C 62 % 1012,7 hPa 0,0 mm 3,4 km/h (1 Bft) N-NW 0,28 h 0,406 mm 3,7 UV-I 410 W/m 16,0 C 5,2 km/h (1 Bft)
20.08.2016 14:00 22,6 C 22,6 C 64 % 1012,8 hPa 0,0 mm 4,1 km/h (1 Bft) W 0,00 h 0,280 mm 1,9 UV-I 202 W/m 15,5 C 6,9 km/h (2 Bft)
20.08.2016 15:00 21,3 C 21,4 C 73 % 1013,3 hPa 0,0 mm 4,5 km/h (1 Bft) W 0,00 h 0,152 mm 1,0 UV-I 110 W/m 16,2 C 7,6 km/h (2 Bft)
20.08.2016 16:00 19,2 C 19,2 C 76 % 1013,9 hPa 0,2 mm 6,1 km/h (2 Bft) W-SW 0,00 h 0,076 mm 0,7 UV-I 75 W/m 14,7 C 10,3 km/h (2 Bft)
20.08.2016 17:00 15,1 C 15,2 C 88 % 1014,6 hPa 1,6 mm 2,4 km/h (1 Bft) S-SO 0,00 h 0,077 mm 0,0 UV-I 38 W/m 13,2 C 4,5 km/h (1 Bft)
20.08.2016 18:00 14,5 C 14,5 C 91 % 1014,7 hPa 0,6 mm 2,2 km/h (1 Bft) S 0,00 h 0,025 mm 0,0 UV-I 34 W/m 13,0 C 3,7 km/h (1 Bft)
20.08.2016 19:00 14,3 C 14,3 C 93 % 1015,0 hPa 0,2 mm 2,2 km/h (1 Bft) SO 0,00 h 0,025 mm 0,0 UV-I 19 W/m 13,2 C 3,6 km/h (1 Bft)
20.08.2016 20:00 14,5 C 14,5 C 94 % 1015,1 hPa 0,0 mm 0,6 km/h (0 Bft) SO 0,00 h 0,000 mm 0,0 UV-I 0 W/m 13,6 C 1,4 km/h (1 Bft)
20.08.2016 21:00 14,8 C 14,9 C 94 % 1015,3 hPa 0,0 mm 1,0 km/h (0 Bft) W-SW 0,00 h 0,000 mm 0,0 UV-I 0 W/m 13,9 C 1,9 km/h (1 Bft)
20.08.2016 22:00 14,9 C 14,9 C 95 % 1015,3 hPa 0,0 mm 0,2 km/h (0 Bft) W-SW 0,00 h 0,000 mm 0,0 UV-I 0 W/m 14,1 C 0,5 km/h (0 Bft)
20.08.2016 23:00 15,2 C 15,2 C 94 % 1015,3 hPa 0,2 mm 1,2 km/h (1 Bft) S 0,00 h 0,000 mm 0,0 UV-I 0 W/m 14,2 C 2,2 km/h (1 Bft)
21.08.2016 00:00 15,2 C 15,2 C 94 % 1015,7 hPa 1,0 mm 3,9 km/h (1 Bft) S 0,00 h 0,000 mm 0,0 UV-I 0 W/m 14,2 C 6,4 km/h (2 Bft)
21.08.2016 01:00 14,2 C 14,3 C 93 % 1016,8 hPa 4,4 mm 12,4 km/h (3 Bft) W 0,00 h 0,000 mm 0,0 UV-I 0 W/m 13,1 C 19,2 km/h (3 Bft)
21.08.2016 02:00 12,4 C 12,4 C 92 % 1017,7 hPa 2,2 mm 12,2 km/h (2 Bft) W-SW 0,00 h 0,025 mm 0,0 UV-I 0 W/m 11,2 C 19,1 km/h (3 Bft)
21.08.2016 03:00 11,5 C 11,5 C 93 % 1018,0 hPa 0,4 mm 2,9 km/h (1 Bft) W-SW 0,00 h 0,026 mm 0,0 UV-I 0 W/m 10,4 C 5,0 km/h (1 Bft)
21.08.2016 04:00 11,6 C 11,6 C 92 % 1018,6 hPa 0,6 mm 2,5 km/h (1 Bft) W-SW 0,00 h 0,000 mm 0,0 UV-I 0 W/m 10,3 C 4,6 km/h (1 Bft)
21.08.2016 05:00 11,4 C 11,5 C 92 % 1018,6 hPa 0,0 mm 2,3 km/h (1 Bft) S-SW 0,00 h 0,000 mm 0,0 UV-I 0 W/m 10,2 C 3,9 km/h (1 Bft)
21.08.2016 06:00 10,8 C 10,9 C 95 % 1018,5 hPa 0,0 mm 0,3 km/h (0 Bft) NO 0,00 h 0,000 mm 0,0 UV-I 7 W/m 10,0 C 1,0 km/h (0 Bft)
21.08.2016 07:00 11,2 C 11,2 C 95 % 1018,6 hPa 0,0 mm 0,6 km/h (0 Bft) O-SO 0,00 h 0,000 mm 0,0 UV-I 31 W/m 10,3 C 1,5 km/h (1 Bft)
21.08.2016 08:00 12,3 C 12,3 C 93 % 1019,0 hPa 0,0 mm 1,0 km/h (0 Bft) S-SW 0,00 h 0,025 mm 0,7 UV-I 97 W/m 11,2 C 2,1 km/h (1 Bft)
21.08.2016 09:00 12,8 C 12,8 C 92 % 1019,1 hPa 0,2 mm 1,5 km/h (1 Bft) S-SO 0,00 h 0,051 mm 0,6 UV-I 72 W/m 11,5 C 3,0 km/h (1 Bft)
21.08.2016 10:00 13,2 C 13,2 C 92 % 1019,4 hPa 0,0 mm 1,7 km/h (1 Bft) W-SW 0,00 h 0,025 mm 0,8 UV-I 91 W/m 11,9 C 3,1 km/h (1 Bft)
21.08.2016 11:00 13,6 C 13,6 C 91 % 1019,7 hPa 0,0 mm 4,4 km/h (1 Bft) W 0,00 h 0,051 mm 1,1 UV-I 121 W/m 12,2 C 7,3 km/h (2 Bft)
21.08.2016 12:00 14,2 C 14,2 C 89 % 1019,9 hPa 0,0 mm 4,0 km/h (1 Bft) W-SW 0,00 h 0,076 mm 1,4 UV-I 159 W/m 12,4 C 6,6 km/h (2 Bft)
21.08.2016 13:00 14,8 C 14,8 C 87 % 1020,0 hPa 0,0 mm 3,7 km/h (1 Bft) W 0,00 h 0,077 mm 2,5 UV-I 280 W/m 12,7 C 6,6 km/h (2 Bft)
21.08.2016 14:00 15,8 C 15,9 C 82 % 1020,1 hPa 0,0 mm 5,2 km/h (1 Bft) W 0,17 h 0,152 mm 2,9 UV-I 305 W/m 12,7 C 8,9 km/h (2 Bft)
21.08.2016 15:00 16,8 C 16,9 C 74 % 1020,0 hPa 0,0 mm 7,7 km/h (2 Bft) W 0,83 h 0,178 mm 4,4 UV-I 655 W/m 12,2 C 12,8 km/h (3 Bft)
21.08.2016 16:00 17,0 C 17,1 C 71 % 1020,1 hPa 0,0 mm 10,6 km/h (2 Bft) W 0,25 h 0,355 mm 2,4 UV-I 268 W/m 11,8 C 16,8 km/h (3 Bft)
21.08.2016 17:00 15,2 C 15,2 C 75 % 1020,7 hPa 0,0 mm 10,2 km/h (2 Bft) W 0,00 h 0,204 mm 1,0 UV-I 153 W/m 10,8 C 15,1 km/h (3 Bft)
21.08.2016 18:00 15,1 C 15,1 C 76 % 1020,9 hPa 0,0 mm 6,8 km/h (2 Bft) W-SW 0,00 h 0,101 mm 0,6 UV-I 53 W/m 10,8 C 11,2 km/h (2 Bft)
21.08.2016 19:00 14,6 C 14,6 C 78 % 1021,5 hPa 0,0 mm 3,2 km/h (1 Bft) W-SW 0,00 h 0,051 mm 0,0 UV-I 25 W/m 10,7 C 5,5 km/h (1 Bft)
21.08.2016 20:00 14,1 C 14,1 C 79 % 1022,6 hPa 0,0 mm 3,2 km/h (1 Bft) W-SW 0,00 h 0,025 mm 0,0 UV-I 8 W/m 10,5 C 5,6 km/h (1 Bft)
21.08.2016 21:00 13,4 C 13,4 C 81 % 1023,6 hPa 0,0 mm 2,7 km/h (1 Bft) W-SW 0,00 h 0,000 mm 0,0 UV-I 0 W/m 10,2 C 4,7 km/h (1 Bft)
21.08.2016 22:00 12,8 C 12,9 C 85 % 1024,5 hPa 0,4 mm 4,4 km/h (1 Bft) W-SW 0,00 h 0,026 mm 0,0 UV-I 0 W/m 10,3 C 7,4 km/h (2 Bft)
21.08.2016 23:00 11,9 C 12,0 C 87 % 1025,0 hPa 0,0 mm 6,2 km/h (2 Bft) S 0,00 h 0,025 mm 0,0 UV-I 0 W/m 9,8 C 9,2 km/h (2 Bft)
Min-Datum _ 21.08.16 21.08.16 16.08.16 18.08.16 - 21.08.16 - - - - - 21.08.16 21.08.16
_ Min-Zeit 06:08 06:10 16:32 16:02 - 10:03 - - - - - 23:32 10:03
Minimum _ 10,8 C 10,8 C 50 % 1007,9 hPa - 0,0 km/h (0 Bft) - - - - - 9,5 C 0,0 km/h (0 Bft)
Max-Datum _ 16.08.16 16.08.16 19.08.16 21.08.16 18.08.16 16.08.16 - 16.08.16 15.08.16 16.08.16 19.08.16 15.08.16 16.08.16
_ Max-Zeit 15:47 15:47 07:06 23:44 01:40 23:01 - 15:03 15:21 13:04 13:01 13:22 23:01
Maximum _ 25,2 C 25,2 C 96 % 1025,2 hPa 7,6 mm 27,2 km/h
S (4 Bft)
- 0,03 h 2,007 mm 7,1 UV-I 1072 W/m 18,3 C 43,5 km/h
S (6 Bft)
Durchschnitt _ 16,6 C 16,6 C 85 % 1014,0 hPa #34,4 mm 2,5 km/h (1 Bft) W #28:07 h #17,804 mm 2,5 UV-I 159 W/m 13,8 C 4,2 km/h (1 Bft)